createdAt,value
2022-12-31T00:00:26.151Z,14.56
2022-12-31T00:06:17.245Z,14.6
2022-12-31T00:12:01.158Z,14.65
2022-12-31T00:17:43.999Z,14.63
2022-12-31T00:23:27.063Z,14.63
2022-12-31T00:29:10.358Z,14.62
2022-12-31T00:34:53.486Z,14.65
2022-12-31T00:40:36.391Z,14.67
2022-12-31T00:46:19.684Z,14.68
2022-12-31T00:52:02.940Z,14.69
2022-12-31T00:57:45.688Z,14.68
2022-12-31T01:03:28.513Z,14.69
2022-12-31T01:09:12.101Z,14.73
2022-12-31T01:14:55.197Z,14.71
2022-12-31T01:20:40.170Z,14.72
2022-12-31T01:26:22.920Z,14.72
2022-12-31T01:32:06.896Z,14.72
2022-12-31T01:37:49.795Z,14.75
2022-12-31T01:43:47.103Z,14.76
2022-12-31T01:49:34.942Z,14.78
2022-12-31T01:55:21.073Z,14.8
2022-12-31T02:01:07.086Z,14.8
2022-12-31T02:06:53.178Z,14.82
2022-12-31T02:12:35.971Z,14.82
2022-12-31T02:18:22.710Z,14.81
2022-12-31T02:24:19.250Z,14.84
2022-12-31T02:30:12.670Z,14.89
2022-12-31T02:35:57.265Z,14.95
2022-12-31T02:41:40.171Z,14.92
2022-12-31T02:47:32.489Z,14.89
2022-12-31T02:53:20.989Z,14.9
2022-12-31T02:59:07.961Z,14.9
2022-12-31T03:04:51.896Z,14.91
2022-12-31T03:10:35.038Z,14.91
2022-12-31T03:16:18.952Z,14.91
2022-12-31T03:22:01.991Z,14.9
2022-12-31T03:27:45.426Z,14.94
2022-12-31T03:33:30.247Z,14.94
2022-12-31T03:39:13.181Z,14.98
2022-12-31T03:44:56.025Z,14.97
2022-12-31T03:50:39.113Z,14.96
2022-12-31T03:56:23.017Z,14.97
2022-12-31T04:02:06.534Z,14.99
2022-12-31T04:07:49.889Z,15.03
2022-12-31T04:13:33.878Z,15.02
2022-12-31T04:19:16.819Z,15.03
2022-12-31T04:24:59.626Z,15.02
2022-12-31T04:30:42.966Z,15.04
2022-12-31T04:36:25.646Z,15.09
2022-12-31T04:42:10.421Z,15.09
2022-12-31T04:47:53.337Z,15.07
2022-12-31T04:53:37.586Z,15.08
2022-12-31T04:59:20.363Z,15.09
2022-12-31T05:05:03.225Z,15.11
2022-12-31T05:10:46.844Z,15.11
2022-12-31T05:16:29.660Z,15.13
2022-12-31T05:22:12.607Z,15.13
2022-12-31T05:27:56.567Z,15.15
2022-12-31T05:33:39.317Z,15.18
2022-12-31T05:39:22.006Z,15.19
2022-12-31T05:45:05.634Z,15.2
2022-12-31T05:50:48.777Z,15.19
2022-12-31T05:56:31.423Z,15.21
2022-12-31T06:02:14.349Z,15.21
2022-12-31T06:07:57.370Z,15.25
2022-12-31T06:13:41.112Z,15.24
2022-12-31T06:19:24.092Z,15.25
2022-12-31T06:25:08.149Z,15.27
2022-12-31T06:30:51.056Z,15.28
2022-12-31T06:36:34.124Z,15.31
2022-12-31T06:42:17.066Z,15.3
2022-12-31T06:48:00.866Z,15.29
2022-12-31T06:53:44.297Z,15.32
2022-12-31T06:59:29.058Z,15.33
2022-12-31T07:05:13.628Z,15.34
2022-12-31T07:11:01.318Z,15.34
2022-12-31T07:16:53.562Z,15.34
2022-12-31T07:22:36.917Z,15.39
2022-12-31T07:28:24.959Z,15.37
2022-12-31T07:34:10.221Z,15.41
2022-12-31T07:39:59.801Z,15.43
2022-12-31T07:45:47.649Z,15.44
2022-12-31T07:51:32.130Z,15.42
2022-12-31T07:57:16.554Z,15.44
2022-12-31T08:03:10.432Z,15.45
2022-12-31T08:08:58.404Z,15.48
2022-12-31T08:14:43.262Z,15.53
2022-12-31T08:20:26.674Z,15.56
2022-12-31T08:26:15.515Z,15.59
2022-12-31T08:32:03.288Z,15.63
2022-12-31T08:37:49.964Z,15.69
2022-12-31T08:43:47.666Z,15.71
2022-12-31T08:49:32.020Z,15.8
2022-12-31T08:55:19.094Z,15.84
2022-12-31T09:01:05.114Z,15.86
2022-12-31T09:06:54.366Z,15.94
2022-12-31T09:12:41.403Z,16.01
2022-12-31T09:18:33.266Z,16.05
2022-12-31T09:24:17.732Z,16.16
2022-12-31T09:30:01.888Z,16.22
2022-12-31T09:35:48.814Z,16.33
2022-12-31T09:41:39.450Z,16.34
2022-12-31T09:47:33.635Z,16.44
2022-12-31T09:53:27.650Z,16.51
2022-12-31T09:59:19.305Z,16.58
2022-12-31T10:05:12.444Z,16.64
2022-12-31T10:10:57.832Z,16.66
2022-12-31T10:16:47.477Z,16.67
2022-12-31T10:22:49.729Z,16.73
2022-12-31T10:28:38.760Z,16.75
2022-12-31T10:34:25.715Z,16.78
2022-12-31T10:40:15.476Z,16.87
2022-12-31T10:46:10.815Z,16.84
2022-12-31T10:52:17.470Z,16.89
2022-12-31T10:58:14.857Z,17.01
2022-12-31T11:04:07.383Z,17.06
2022-12-31T11:10:05.412Z,17.12
2022-12-31T11:15:56.252Z,17.26
2022-12-31T11:21:46.529Z,17.21
2022-12-31T11:27:35.008Z,17.35
2022-12-31T11:33:24.187Z,17.27
2022-12-31T11:39:17.366Z,17.37
2022-12-31T11:45:04.667Z,17.34
2022-12-31T11:50:51.076Z,17.23
2022-12-31T11:56:37.076Z,17.16
2022-12-31T12:02:24.852Z,17.1
2022-12-31T12:08:08.229Z,17.05
2022-12-31T12:13:51.809Z,16.98
2022-12-31T12:19:35.895Z,16.97
2022-12-31T12:25:20.949Z,16.94
2022-12-31T12:31:04.755Z,16.98
2022-12-31T12:36:49.433Z,17.1
2022-12-31T12:42:32.517Z,17.16
2022-12-31T12:48:18.833Z,17.2
2022-12-31T12:54:06.089Z,17.23
2022-12-31T12:59:57.205Z,17.25
2022-12-31T13:05:47.162Z,17.35
2022-12-31T13:11:36.606Z,17.39
2022-12-31T13:17:30.593Z,17.39
2022-12-31T13:23:16.334Z,17.46
2022-12-31T13:29:01.577Z,17.41
2022-12-31T13:34:45.730Z,17.41
2022-12-31T13:40:31.600Z,17.44
2022-12-31T13:46:18.388Z,17.43
2022-12-31T13:52:05.223Z,17.41
2022-12-31T13:57:50.389Z,17.41
2022-12-31T14:03:37.783Z,17.4
2022-12-31T14:09:22.595Z,17.49
2022-12-31T14:15:10.622Z,17.43
2022-12-31T14:20:57.985Z,17.38
2022-12-31T14:26:43.643Z,17.35
2022-12-31T14:32:43.919Z,17.32
2022-12-31T14:38:36.130Z,17.32
2022-12-31T14:44:34.839Z,17.26
2022-12-31T14:50:22.138Z,17.26
2022-12-31T14:56:12.837Z,17.18
2022-12-31T15:01:58.201Z,17.11
2022-12-31T15:07:48.005Z,17.06
2022-12-31T15:13:37.292Z,17.02
2022-12-31T15:19:31.963Z,16.96
2022-12-31T15:25:36.906Z,16.92
2022-12-31T15:31:24.598Z,16.91
2022-12-31T15:37:18.521Z,16.84
2022-12-31T15:43:04.270Z,16.77
2022-12-31T15:48:52.200Z,16.7
2022-12-31T15:54:51.121Z,16.68
2022-12-31T16:00:43.423Z,16.61
2022-12-31T16:06:28.194Z,16.59
2022-12-31T16:12:17.085Z,16.52
2022-12-31T16:18:04.787Z,16.46
2022-12-31T16:23:53.740Z,16.41
2022-12-31T16:29:41.340Z,16.36
2022-12-31T16:35:26.168Z,16.35
2022-12-31T16:41:15.489Z,16.32
2022-12-31T16:47:02.506Z,16.29
2022-12-31T16:52:46.667Z,16.23
2022-12-31T16:58:30.876Z,16.2
2022-12-31T17:04:16.465Z,16.17
2022-12-31T17:10:13.177Z,16.14
2022-12-31T17:15:56.420Z,16.13
2022-12-31T17:21:45.851Z,16.1
2022-12-31T17:27:29.725Z,16.08
2022-12-31T17:33:23.759Z,16.05
2022-12-31T17:39:21.112Z,16.02
2022-12-31T17:45:05.956Z,16.01
2022-12-31T17:50:50.719Z,15.96
2022-12-31T17:56:33.734Z,15.93
2022-12-31T18:02:17.064Z,15.9
2022-12-31T18:08:00.404Z,15.91
2022-12-31T18:13:43.869Z,15.89
2022-12-31T18:25:29.983Z,15.88
2022-12-31T18:31:16.517Z,15.86
2022-12-31T18:37:00.159Z,15.87
2022-12-31T18:42:44.005Z,15.86
2022-12-31T18:48:27.013Z,15.82
2022-12-31T18:54:10.676Z,15.77
2022-12-31T18:59:54.403Z,15.77
2022-12-31T19:05:37.390Z,15.78
2022-12-31T19:11:20.685Z,15.76
2022-12-31T19:22:42.688Z,15.71
2022-12-31T19:28:26.513Z,15.71
2022-12-31T19:34:09.354Z,15.73
2022-12-31T19:39:52.137Z,15.7
2022-12-31T19:45:34.890Z,15.7
2022-12-31T19:51:19.372Z,15.7
2022-12-31T19:57:02.226Z,15.69
2022-12-31T20:02:46.149Z,15.69
2022-12-31T20:08:29.793Z,15.69
2022-12-31T20:14:12.530Z,15.65
2022-12-31T20:19:55.399Z,15.62
2022-12-31T20:25:38.323Z,15.61
2022-12-31T20:31:23.179Z,15.61
2022-12-31T20:37:06.167Z,15.62
2022-12-31T20:42:48.993Z,15.6
2022-12-31T20:48:31.846Z,15.58
2022-12-31T20:54:14.621Z,15.59
2022-12-31T20:59:57.555Z,15.55
2022-12-31T21:05:45.555Z,15.55
2022-12-31T21:11:29.315Z,15.55
2022-12-31T21:17:12.288Z,15.53
2022-12-31T21:22:55.182Z,15.51
2022-12-31T21:28:37.892Z,15.51
2022-12-31T21:34:20.733Z,15.51
2022-12-31T21:40:03.845Z,15.5
2022-12-31T21:45:46.794Z,15.48
2022-12-31T21:58:28.041Z,15.65
2022-12-31T22:04:22.290Z,15.63
2022-12-31T22:10:11.644Z,15.63
2022-12-31T22:16:01.964Z,15.59
2022-12-31T22:21:48.080Z,15.6
2022-12-31T22:27:30.951Z,15.58
2022-12-31T22:33:13.828Z,15.55
2022-12-31T22:38:58.060Z,15.54
2022-12-31T22:44:40.883Z,15.53
2022-12-31T22:50:23.658Z,15.53
2022-12-31T22:56:07.217Z,15.52
2022-12-31T23:01:50.099Z,15.54
2022-12-31T23:07:32.878Z,15.54
2022-12-31T23:13:15.802Z,15.52
2022-12-31T23:19:03.532Z,15.52
2022-12-31T23:24:47.927Z,15.54
2022-12-31T23:30:30.905Z,15.51
2022-12-31T23:36:13.873Z,15.53
2022-12-31T23:41:57.303Z,15.5
2022-12-31T23:47:40.340Z,15.49
2022-12-31T23:53:23.364Z,15.47
2022-12-31T23:59:06.185Z,15.49
